Time;durP1;ratioP1;P1;durP2;ratioP2;P2;SDS_P1;SDS_P2;PMS_P1;PMS_P2;Temp;Humidity;BMP_temperature;BMP_pressure;BME280_temperature;BME280_humidity;BME280_pressure;Samples;Min_cycle;Max_cycle;Signal;HPM_P1;HPM_P2
2024/01/10 00:00:40;;;;;;;6.60;2.60;;;-1.30;1.00;;;;;;5110306;28;20436;-73
2024/01/10 00:03:07;;;;;;;4.32;2.65;;;-1.30;1.00;;;;;;5093788;28;20438;-74
2024/01/10 00:05:34;;;;;;;4.47;1.75;;;-1.50;1.00;;;;;;5092985;28;20476;-74
2024/01/10 00:08:01;;;;;;;8.67;2.40;;;-1.50;1.00;;;;;;5111262;28;20539;-74
2024/01/10 00:10:29;;;;;;;4.88;1.90;;;-1.50;1.00;;;;;;5109173;28;21239;-73
2024/01/10 00:13:02;;;;;;;4.70;1.80;;;-1.50;1.00;;;;;;5099776;28;20444;-73
2024/01/10 00:15:29;;;;;;;5.10;1.80;;;-1.50;1.00;;;;;;5112716;28;20467;-73
2024/01/10 00:17:56;;;;;;;4.60;1.80;;;-1.40;1.00;;;;;;5111417;28;20432;-73
2024/01/10 00:20:23;;;;;;;5.30;2.30;;;-1.40;1.00;;;;;;5095006;28;20451;-73
2024/01/10 00:22:50;;;;;;;3.92;1.90;;;-1.20;1.00;;;;;;5113269;28;20428;-73
2024/01/10 00:25:18;;;;;;;4.13;1.65;;;-1.20;1.00;;;;;;5113303;28;20508;-72
2024/01/10 00:27:45;;;;;;;6.13;2.20;;;-1.30;1.00;;;;;;5115009;27;20450;-73
2024/01/10 00:30:13;;;;;;;5.93;1.60;;;-1.10;1.00;;;;;;5097168;28;20417;-73
2024/01/10 00:32:41;;;;;;;4.80;1.52;;;-1.10;1.00;;;;;;5096568;28;20418;-73
2024/01/10 00:35:08;;;;;;;4.50;2.22;;;-1.10;1.00;;;;;;5100558;28;20445;-72
2024/01/10 00:37:35;;;;;;;4.00;1.40;;;-1.10;1.00;;;;;;5097061;28;20425;-72
2024/01/10 00:40:02;;;;;;;4.53;1.80;;;-1.10;1.00;;;;;;5096941;28;20681;-72
2024/01/10 00:42:30;;;;;;;5.38;2.17;;;-1.40;1.00;;;;;;5097666;28;20444;-72
2024/01/10 00:44:57;;;;;;;4.50;1.70;;;-1.30;1.00;;;;;;5098917;28;20812;-74
2024/01/10 00:47:31;;;;;;;4.40;1.50;;;-1.30;1.00;;;;;;5114447;28;20409;-73
2024/01/10 00:49:58;;;;;;;4.88;1.50;;;-1.30;1.00;;;;;;5105856;28;20428;-73
2024/01/10 00:52:26;;;;;;;5.13;1.70;;;-1.30;1.00;;;;;;5117229;28;20421;-73
2024/01/10 00:54:53;;;;;;;3.95;1.60;;;-1.30;1.00;;;;;;5100566;28;20716;-73
2024/01/10 00:57:20;;;;;;;5.97;1.98;;;-1.30;1.00;;;;;;5097137;28;20703;-74
2024/01/10 00:59:47;;;;;;;3.60;1.50;;;-1.40;1.00;;;;;;5110298;28;20505;-73
2024/01/10 01:02:14;;;;;;;5.25;1.70;;;-1.60;1.00;;;;;;5102706;28;20493;-74
2024/01/10 01:04:43;;;;;;;5.10;1.80;;;-1.70;1.00;;;;;;5115032;28;20829;-73
2024/01/10 01:07:10;;;;;;;3.70;1.73;;;-1.50;1.00;;;;;;5120202;28;20412;-73
2024/01/10 01:09:37;;;;;;;4.38;1.70;;;-1.40;1.00;;;;;;5114523;28;20489;-73
2024/01/10 01:12:04;;;;;;;5.28;2.00;;;-1.30;1.00;;;;;;5116178;28;20801;-72
2024/01/10 01:14:31;;;;;;;6.72;1.70;;;-1.30;1.00;;;;;;5113147;28;20435;-72
2024/01/10 01:16:59;;;;;;;4.78;1.70;;;-1.30;1.00;;;;;;5114920;28;20443;-73
2024/01/10 01:19:26;;;;;;;6.15;1.70;;;-1.50;1.00;;;;;;5115804;28;20452;-73
2024/01/10 01:21:54;;;;;;;6.17;1.60;;;-1.70;1.00;;;;;;5102579;28;20442;-73
2024/01/10 01:24:21;;;;;;;7.45;2.25;;;-1.90;1.00;;;;;;5093852;28;20531;-73
2024/01/10 01:26:48;;;;;;;4.88;1.40;;;-2.00;1.00;;;;;;5113048;28;20863;-73
2024/01/10 01:29:15;;;;;;;5.18;2.03;;;-2.00;1.00;;;;;;5113146;28;20437;-73
2024/01/10 01:31:42;;;;;;;5.80;1.80;;;-1.70;1.00;;;;;;5100340;28;20524;-72
2024/01/10 01:34:09;;;;;;;5.85;2.20;;;-1.60;1.00;;;;;;5106099;28;20843;-72
2024/01/10 01:36:36;;;;;;;6.00;1.80;;;-1.50;1.00;;;;;;5104084;28;20447;-73
2024/01/10 01:39:08;;;;;;;4.70;1.92;;;-1.40;1.00;;;;;;5098883;28;20452;-73
2024/01/10 01:41:36;;;;;;;6.28;1.88;;;-1.40;1.00;;;;;;5114790;28;20476;-73
2024/01/10 01:44:03;;;;;;;5.03;1.67;;;-1.50;1.00;;;;;;5115332;28;20421;-73
2024/01/10 01:46:31;;;;;;;4.80;1.50;;;-1.60;1.00;;;;;;5101815;28;20433;-73
2024/01/10 01:48:58;;;;;;;5.60;1.60;;;-1.70;1.00;;;;;;5106710;28;20425;-73
2024/01/10 01:51:26;;;;;;;5.60;2.08;;;-1.80;1.00;;;;;;5108596;28;20853;-73
2024/01/10 01:53:57;;;;;;;5.68;1.90;;;-1.80;1.00;;;;;;5115970;27;20420;-73
2024/01/10 01:56:26;;;;;;;4.00;1.80;;;-1.80;1.00;;;;;;5114141;28;20489;-73
2024/01/10 01:58:55;;;;;;;6.50;2.00;;;-1.70;1.00;;;;;;5112027;28;20853;-72
2024/01/10 02:01:24;;;;;;;6.55;2.92;;;-1.60;1.00;;;;;;5113525;28;20446;-72
2024/01/10 02:03:51;;;;;;;4.40;1.73;;;-1.70;1.00;;;;;;5095469;28;20466;-74
2024/01/10 02:06:19;;;;;;;7.13;1.90;;;-1.60;1.00;;;;;;5114787;28;20524;-73
2024/01/10 02:08:46;;;;;;;5.60;2.40;;;-1.50;1.00;;;;;;5105911;28;20433;-73
2024/01/10 02:11:13;;;;;;;5.10;2.30;;;-1.50;1.00;;;;;;5104252;28;20436;-73
2024/01/10 02:13:42;;;;;;;6.82;2.30;;;-1.30;1.00;;;;;;5105846;28;20447;-72
2024/01/10 02:16:10;;;;;;;3.25;1.60;;;-1.30;1.00;;;;;;5111066;28;20632;-72
2024/01/10 02:18:39;;;;;;;5.82;1.50;;;-1.10;1.00;;;;;;5094167;28;20839;-74
2024/01/10 02:21:06;;;;;;;6.00;2.00;;;-1.10;1.00;;;;;;5093094;28;20532;-72
2024/01/10 02:23:33;;;;;;;4.32;1.70;;;-1.20;1.00;;;;;;5105163;28;20434;-73
2024/01/10 02:26:02;;;;;;;3.33;1.50;;;-1.40;1.00;;;;;;5107717;28;20779;-73
2024/01/10 02:28:29;;;;;;;6.78;1.50;;;-1.50;1.00;;;;;;5112134;28;21015;-74
2024/01/10 02:30:57;;;;;;;7.15;2.00;;;-1.40;1.00;;;;;;5113977;28;20775;-74
2024/01/10 02:33:24;;;;;;;6.30;2.28;;;-1.40;1.00;;;;;;5114160;28;20436;-74
2024/01/10 02:35:51;;;;;;;4.88;2.47;;;-1.40;1.00;;;;;;5096535;28;20433;-73
2024/01/10 02:38:21;;;;;;;6.07;2.40;;;-1.40;1.00;;;;;;5100914;28;20434;-73
2024/01/10 02:40:48;;;;;;;5.80;1.90;;;-1.40;1.00;;;;;;5115275;28;20921;-73
2024/01/10 02:43:17;;;;;;;6.38;2.10;;;-1.60;1.00;;;;;;5115293;28;20420;-74
2024/01/10 02:45:44;;;;;;;4.30;1.63;;;-1.60;1.00;;;;;;5114992;27;20431;-72
2024/01/10 02:48:12;;;;;;;5.00;1.70;;;-1.80;1.00;;;;;;5105407;28;20871;-73
2024/01/10 02:50:39;;;;;;;6.57;2.50;;;-1.80;1.00;;;;;;5105494;27;20500;-73
2024/01/10 02:53:06;;;;;;;7.85;2.58;;;-1.70;1.00;;;;;;5114728;28;20431;-73
2024/01/10 02:55:33;;;;;;;7.47;2.60;;;-1.70;1.00;;;;;;5114207;28;20424;-73
2024/01/10 02:58:00;;;;;;;4.80;1.70;;;-1.60;1.00;;;;;;5114719;28;20432;-74
2024/01/10 03:00:31;;;;;;;4.50;1.80;;;-1.70;1.00;;;;;;5114916;28;20480;-72
2024/01/10 03:02:58;;;;;;;5.28;2.13;;;-1.60;1.00;;;;;;5122870;27;20424;-74
2024/01/10 03:05:26;;;;;;;5.65;1.90;;;-1.70;1.00;;;;;;5112751;28;20471;-72
2024/01/10 03:07:53;;;;;;;8.03;2.47;;;-1.70;1.00;;;;;;5113428;28;20432;-73
2024/01/10 03:10:20;;;;;;;5.63;1.90;;;-1.50;1.00;;;;;;5110899;28;20817;-72
2024/01/10 03:12:47;;;;;;;7.30;2.40;;;-1.60;1.00;;;;;;5094949;28;20712;-75
2024/01/10 03:15:14;;;;;;;7.70;2.50;;;-1.60;1.00;;;;;;5110725;28;20450;-73
2024/01/10 03:17:46;;;;;;;5.38;1.92;;;-1.70;1.00;;;;;;5098970;28;20429;-73
2024/01/10 03:20:13;;;;;;;6.03;2.30;;;-1.80;1.00;;;;;;5110330;28;20437;-74
2024/01/10 03:22:40;;;;;;;5.88;2.00;;;-1.70;1.00;;;;;;5093980;28;20873;-73
2024/01/10 03:25:08;;;;;;;6.35;2.03;;;-1.50;1.00;;;;;;5109232;28;20472;-73
2024/01/10 03:27:35;;;;;;;6.88;2.50;;;-1.60;1.00;;;;;;5112288;28;20434;-72
2024/01/10 03:30:02;;;;;;;4.22;1.98;;;-1.60;1.00;;;;;;5111292;28;20428;-73
2024/01/10 03:32:29;;;;;;;7.30;2.17;;;-1.60;1.00;;;;;;5111658;28;20773;-72
2024/01/10 03:34:58;;;;;;;5.97;1.90;;;-1.70;1.00;;;;;;5112300;28;20436;-73
2024/01/10 03:37:25;;;;;;;7.20;2.58;;;-1.90;1.00;;;;;;5101999;28;20432;-73
2024/01/10 03:39:52;;;;;;;5.33;1.93;;;-2.20;1.00;;;;;;5095448;28;20442;-73
2024/01/10 03:42:19;;;;;;;9.68;2.92;;;-2.20;1.00;;;;;;5113021;28;20535;-72
2024/01/10 03:44:47;;;;;;;7.75;2.67;;;-2.20;1.00;;;;;;5113962;28;20493;-73
2024/01/10 03:47:15;;;;;;;5.45;2.00;;;-2.00;1.00;;;;;;5111289;28;20493;-72
2024/01/10 03:49:42;;;;;;;6.47;2.78;;;-1.90;1.00;;;;;;5106947;28;20443;-72
2024/01/10 03:52:10;;;;;;;7.30;2.30;;;-2.00;1.00;;;;;;5097000;28;20438;-73
2024/01/10 03:54:38;;;;;;;8.13;2.10;;;-2.10;1.00;;;;;;5111385;28;20865;-74
2024/01/10 03:57:06;;;;;;;6.05;2.20;;;-2.20;1.00;;;;;;5110745;28;20424;-73
2024/01/10 03:59:33;;;;;;;6.10;2.70;;;-2.30;1.00;;;;;;5111688;28;20469;-72
2024/01/10 04:02:01;;;;;;;6.55;2.40;;;-2.40;1.00;;;;;;5112736;28;20789;-73
2024/01/10 04:04:28;;;;;;;8.77;2.92;;;-2.20;1.00;;;;;;5100605;28;20865;-73
2024/01/10 04:06:56;;;;;;;7.70;3.40;;;-2.30;1.00;;;;;;5100387;28;20818;-73
2024/01/10 04:09:25;;;;;;;4.80;2.30;;;-2.30;1.00;;;;;;5096265;28;20421;-73
2024/01/10 04:11:52;;;;;;;5.53;3.65;;;-2.20;1.00;;;;;;5098452;28;20780;-73
2024/01/10 04:14:19;;;;;;;5.53;2.50;;;-1.80;1.00;;;;;;5096846;28;20421;-73
2024/01/10 04:16:46;;;;;;;6.13;2.78;;;-1.80;1.00;;;;;;5100561;28;20434;-74
2024/01/10 04:19:14;;;;;;;8.70;2.60;;;-1.70;1.00;;;;;;5116147;28;20435;-73
2024/01/10 04:21:41;;;;;;;9.27;2.90;;;-1.70;1.00;;;;;;5115054;28;20439;-73
2024/01/10 04:24:08;;;;;;;4.07;2.10;;;-1.90;1.00;;;;;;5117379;28;20458;-73
2024/01/10 04:26:37;;;;;;;6.25;2.50;;;-1.90;1.00;;;;;;5115048;28;20432;-73
2024/01/10 04:29:04;;;;;;;9.63;2.90;;;-1.80;1.00;;;;;;5116880;28;20448;-73
2024/01/10 04:31:31;;;;;;;8.38;3.10;;;-1.80;1.00;;;;;;5102458;28;20849;-72
2024/01/10 04:33:59;;;;;;;8.90;2.80;;;-1.90;1.00;;;;;;5115663;28;20674;-73
2024/01/10 04:36:26;;;;;;;7.88;3.00;;;-1.80;1.00;;;;;;5111333;28;20714;-73
2024/01/10 04:38:53;;;;;;;5.65;2.38;;;-1.80;1.00;;;;;;5116015;28;20424;-73
2024/01/10 04:41:20;;;;;;;5.63;2.75;;;-1.50;1.00;;;;;;5116100;28;20420;-74
2024/01/10 04:43:48;;;;;;;7.97;3.53;;;-1.40;1.00;;;;;;5117014;27;20423;-73
2024/01/10 04:46:15;;;;;;;6.53;2.90;;;-1.60;1.00;;;;;;5116348;28;20424;-73
2024/01/10 04:48:42;;;;;;;7.28;3.10;;;-1.80;1.00;;;;;;5111617;28;20416;-73
2024/01/10 04:51:09;;;;;;;7.65;3.15;;;-2.00;1.00;;;;;;5113188;28;20469;-72
2024/01/10 04:53:36;;;;;;;7.47;2.50;;;-2.10;1.00;;;;;;5117169;28;20463;-72
2024/01/10 04:56:03;;;;;;;7.47;3.07;;;-2.00;1.00;;;;;;5115233;28;20539;-72
2024/01/10 04:58:32;;;;;;;6.35;2.22;;;-1.90;1.00;;;;;;5110990;28;20437;-73
2024/01/10 05:01:01;;;;;;;9.65;3.65;;;-1.80;1.00;;;;;;5102847;28;20456;-73
2024/01/10 05:03:28;;;;;;;7.13;2.90;;;-1.80;1.00;;;;;;5103039;28;20421;-73
2024/01/10 05:05:57;;;;;;;8.98;3.38;;;-1.60;1.00;;;;;;5102999;28;20444;-73
2024/01/10 05:08:24;;;;;;;8.73;3.40;;;-1.50;1.00;;;;;;5101105;28;20752;-73
2024/01/10 05:10:51;;;;;;;10.10;3.55;;;-1.40;1.00;;;;;;5100680;28;20491;-73
2024/01/10 05:13:18;;;;;;;7.20;2.60;;;-1.50;1.00;;;;;;5110947;28;20431;-72
2024/01/10 05:15:46;;;;;;;6.60;3.35;;;-1.00;1.00;;;;;;5114990;28;20432;-72
2024/01/10 05:18:19;;;;;;;6.90;2.90;;;-0.50;1.00;;;;;;5114278;28;20432;-73
2024/01/10 05:20:46;;;;;;;9.30;3.65;;;-0.50;1.00;;;;;;5110230;28;20860;-75
2024/01/10 05:23:13;;;;;;;7.73;2.63;;;-0.60;1.00;;;;;;5113881;28;20436;-72
2024/01/10 05:25:40;;;;;;;9.38;3.70;;;-0.90;1.00;;;;;;5113681;28;20447;-72
2024/01/10 05:28:07;;;;;;;9.18;2.90;;;-1.20;1.00;;;;;;5109596;28;20432;-73
2024/01/10 05:30:35;;;;;;;7.57;3.53;;;-1.40;1.00;;;;;;5110042;28;20441;-73
2024/01/10 05:33:02;;;;;;;9.52;3.63;;;-1.50;1.00;;;;;;5099529;28;20440;-73
2024/01/10 05:35:30;;;;;;;8.10;3.17;;;-1.50;1.00;;;;;;5101288;28;20727;-72
2024/01/10 05:37:59;;;;;;;6.40;3.38;;;-1.70;1.00;;;;;;5104586;28;20767;-73
2024/01/10 05:40:29;;;;;;;7.88;3.72;;;-1.90;1.00;;;;;;5112746;28;20479;-73
2024/01/10 05:42:57;;;;;;;8.93;3.10;;;-2.00;1.00;;;;;;5098102;28;20553;-73
2024/01/10 05:45:24;;;;;;;7.43;3.50;;;-2.00;1.00;;;;;;5111698;28;20428;-73
2024/01/10 05:47:51;;;;;;;8.63;3.72;;;-2.20;1.00;;;;;;5106764;28;20840;-72
2024/01/10 05:50:19;;;;;;;10.43;3.40;;;-2.20;1.00;;;;;;5111266;28;20432;-73
2024/01/10 05:52:48;;;;;;;9.50;2.97;;;-2.20;1.00;;;;;;5112561;28;20485;-72
2024/01/10 05:55:16;;;;;;;6.88;2.65;;;-2.20;1.00;;;;;;5113429;28;20822;-75
2024/01/10 05:57:43;;;;;;;8.15;3.95;;;-2.30;1.00;;;;;;5112046;28;20867;-74
2024/01/10 06:00:12;;;;;;;7.35;3.30;;;-2.30;1.00;;;;;;5101487;28;20472;-72
2024/01/10 06:02:40;;;;;;;7.65;3.40;;;-2.20;1.00;;;;;;5106700;28;20438;-73
2024/01/10 06:05:08;;;;;;;10.90;2.70;;;-2.20;1.00;;;;;;5110491;28;20779;-73
2024/01/10 06:07:36;;;;;;;7.03;2.83;;;-2.30;1.00;;;;;;5113104;28;20724;-74
2024/01/10 06:10:06;;;;;;;8.77;3.60;;;-2.30;1.00;;;;;;5093378;28;20437;-73
2024/01/10 06:12:33;;;;;;;9.77;3.28;;;-2.40;1.00;;;;;;5097744;28;20841;-72
2024/01/10 06:15:00;;;;;;;6.03;3.05;;;-2.50;1.00;;;;;;5111760;28;20497;-72
2024/01/10 06:17:27;;;;;;;6.90;3.78;;;-2.60;1.00;;;;;;5113102;28;20439;-71
2024/01/10 06:19:54;;;;;;;7.57;2.85;;;-2.60;1.00;;;;;;5101251;28;20437;-72
2024/01/10 06:22:24;;;;;;;6.72;3.00;;;-2.70;1.00;;;;;;5110962;28;20756;-73
2024/01/10 06:24:52;;;;;;;9.65;3.38;;;-2.80;1.00;;;;;;5103814;28;20557;-74
2024/01/10 06:27:20;;;;;;;10.60;4.23;;;-2.70;1.00;;;;;;5097185;28;20927;-73
2024/01/10 06:29:47;;;;;;;8.75;3.95;;;-2.70;1.00;;;;;;5107351;28;20432;-73
2024/01/10 06:32:15;;;;;;;7.03;3.08;;;-2.70;1.00;;;;;;5108681;28;20783;-72
2024/01/10 06:34:42;;;;;;;8.90;3.70;;;-2.70;1.00;;;;;;5110428;28;20793;-73
2024/01/10 06:37:09;;;;;;;11.05;3.65;;;-2.70;1.00;;;;;;5113184;28;20510;-73
2024/01/10 06:39:38;;;;;;;7.00;3.42;;;-2.70;1.00;;;;;;5112132;28;20572;-72
2024/01/10 06:42:08;;;;;;;7.10;3.10;;;-2.70;1.00;;;;;;5114538;27;20458;-73
2024/01/10 06:44:36;;;;;;;10.02;4.15;;;-2.60;1.00;;;;;;5133630;27;20438;-72
2024/01/10 06:47:03;;;;;;;12.05;5.25;;;-2.70;1.00;;;;;;5132372;27;20418;-72
2024/01/10 06:49:30;;;;;;;8.90;3.95;;;-2.60;1.00;;;;;;5090585;28;20536;-73
2024/01/10 06:51:59;;;;;;;10.23;3.63;;;-2.70;1.00;;;;;;5106089;28;20428;-72
2024/01/10 06:54:26;;;;;;;6.80;3.28;;;-2.70;1.00;;;;;;5111441;28;20727;-72
2024/01/10 06:56:53;;;;;;;9.55;3.55;;;-2.80;1.00;;;;;;5112252;28;20412;-72
2024/01/10 06:59:20;;;;;;;13.13;4.30;;;-2.80;1.00;;;;;;5113903;28;20489;-73
2024/01/10 07:01:55;;;;;;;8.52;3.70;;;-2.80;1.00;;;;;;5112956;28;20489;-73
2024/01/10 07:04:23;;;;;;;9.68;4.10;;;-2.80;1.00;;;;;;5111217;28;20432;-72
2024/01/10 07:06:50;;;;;;;9.43;4.22;;;-2.80;1.00;;;;;;5111186;28;20693;-72
2024/01/10 07:09:19;;;;;;;10.32;4.40;;;-2.90;1.00;;;;;;5111016;28;20423;-73
2024/01/10 07:11:47;;;;;;;10.00;4.25;;;-2.80;1.00;;;;;;5110974;28;20750;-71
2024/01/10 07:14:14;;;;;;;8.43;3.25;;;-2.80;1.00;;;;;;5106969;28;20433;-71
2024/01/10 07:16:42;;;;;;;10.63;3.35;;;-2.80;1.00;;;;;;5109542;28;20436;-71
2024/01/10 07:19:13;;;;;;;10.63;3.50;;;-2.80;1.00;;;;;;5107841;28;20802;-71
2024/01/10 07:21:40;;;;;;;8.38;3.58;;;-2.80;1.00;;;;;;5109529;28;20838;-71
2024/01/10 07:24:08;;;;;;;7.10;3.63;;;-2.90;1.00;;;;;;5104839;28;20433;-71
2024/01/10 07:26:35;;;;;;;7.88;3.53;;;-2.90;1.00;;;;;;5102145;28;20430;-72
2024/01/10 07:29:02;;;;;;;12.80;4.38;;;-2.90;1.00;;;;;;5095457;28;20519;-71
2024/01/10 07:31:29;;;;;;;8.37;4.10;;;-3.00;1.00;;;;;;5109894;28;20420;-71
2024/01/10 07:33:57;;;;;;;10.00;4.90;;;-3.00;1.00;;;;;;5111020;28;20814;-72
2024/01/10 07:36:26;;;;;;;11.95;4.28;;;-3.00;1.00;;;;;;5110838;28;20476;-71
2024/01/10 07:38:53;;;;;;;6.80;3.85;;;-2.90;1.00;;;;;;5113103;28;20557;-71
2024/01/10 07:41:20;;;;;;;8.93;4.60;;;-2.90;1.00;;;;;;5114296;28;20691;-72
2024/01/10 07:43:47;;;;;;;9.13;4.10;;;-2.90;1.00;;;;;;5109939;28;20474;-71
2024/01/10 07:46:14;;;;;;;8.73;4.30;;;-2.80;1.00;;;;;;5113028;28;20743;-71
2024/01/10 07:48:41;;;;;;;11.00;4.43;;;-2.80;1.00;;;;;;5099544;28;20835;-71
2024/01/10 07:51:08;;;;;;;12.65;4.80;;;-2.80;1.00;;;;;;5115929;28;20828;-72
2024/01/10 07:53:37;;;;;;;10.07;4.70;;;-2.70;1.60;;;;;;5095605;28;20507;-71
2024/01/10 07:56:04;;;;;;;8.32;3.92;;;-2.60;1.00;;;;;;5101297;28;20824;-71
2024/01/10 07:58:31;;;;;;;11.82;4.32;;;-2.60;1.00;;;;;;5105398;28;20498;-71
2024/01/10 08:00:58;;;;;;;10.37;4.33;;;-2.70;1.00;;;;;;5108597;28;20448;-72
2024/01/10 08:03:25;;;;;;;10.80;4.80;;;-2.60;1.00;;;;;;5114013;28;20703;-71
2024/01/10 08:05:52;;;;;;;9.30;4.30;;;-2.70;1.00;;;;;;5104778;28;20438;-71
2024/01/10 08:08:19;;;;;;;10.23;5.25;;;-2.60;1.00;;;;;;5114596;28;20428;-71
2024/01/10 08:10:48;;;;;;;11.00;4.65;;;-2.50;1.00;;;;;;5114330;28;20439;-71
2024/01/10 08:13:15;;;;;;;11.45;4.55;;;-2.40;1.00;;;;;;5116489;28;20431;-72
2024/01/10 08:15:42;;;;;;;8.25;4.10;;;-2.40;1.00;;;;;;5113263;28;21377;-71
2024/01/10 08:18:09;;;;;;;8.82;3.92;;;-2.30;1.00;;;;;;5117401;28;20650;-71
2024/01/10 08:20:38;;;;;;;12.02;5.00;;;-2.30;1.00;;;;;;5113179;28;20456;-72
2024/01/10 08:23:05;;;;;;;10.18;4.45;;;-2.30;1.00;;;;;;5114290;28;20511;-71
2024/01/10 08:25:32;;;;;;;10.25;4.65;;;-2.20;1.00;;;;;;5094962;28;20466;-71
2024/01/10 08:28:00;;;;;;;10.40;4.80;;;-2.10;1.00;;;;;;5110906;28;20894;-72
2024/01/10 08:30:27;;;;;;;9.18;4.93;;;-2.20;1.00;;;;;;5103369;28;20434;-72
2024/01/10 08:32:54;;;;;;;11.18;5.00;;;-2.20;1.00;;;;;;5109886;28;20455;-72
2024/01/10 08:35:21;;;;;;;13.32;4.70;;;-2.20;1.00;;;;;;5116554;28;20412;-72
2024/01/10 08:37:49;;;;;;;12.15;4.72;;;-2.20;1.00;;;;;;5109336;28;20436;-72
2024/01/10 08:40:17;;;;;;;9.97;5.03;;;-2.20;1.00;;;;;;5115689;28;20489;-72
2024/01/10 08:42:44;;;;;;;10.07;4.80;;;-2.20;1.00;;;;;;5116318;28;20428;-73
2024/01/10 08:45:14;;;;;;;10.18;4.70;;;-2.20;1.00;;;;;;5116201;28;20432;-72
2024/01/10 08:47:41;;;;;;;12.52;5.43;;;-2.20;1.00;;;;;;5114304;28;20416;-72
2024/01/10 08:50:09;;;;;;;10.75;4.93;;;-2.10;1.00;;;;;;5106752;28;20486;-72
2024/01/10 08:52:37;;;;;;;8.82;4.68;;;-2.00;1.00;;;;;;5111529;28;20432;-73
2024/01/10 08:55:05;;;;;;;8.80;4.43;;;-2.00;1.00;;;;;;5113175;28;20549;-73
2024/01/10 08:57:32;;;;;;;8.98;4.68;;;-1.90;1.00;;;;;;5120908;27;20435;-74
2024/01/10 08:59:59;;;;;;;10.13;5.03;;;-1.90;1.00;;;;;;5112396;28;20848;-73
2024/01/10 09:02:28;;;;;;;8.97;4.90;;;-2.00;1.00;;;;;;5096967;27;20426;-73
2024/01/10 09:04:55;;;;;;;10.48;4.93;;;-1.90;1.00;;;;;;5111087;28;20416;-74
2024/01/10 09:07:22;;;;;;;10.95;4.90;;;-1.90;1.00;;;;;;5114904;28;20436;-74
2024/01/10 09:09:49;;;;;;;11.85;5.53;;;-2.00;1.00;;;;;;5108835;28;20464;-73
2024/01/10 09:12:17;;;;;;;13.38;5.35;;;-2.10;1.00;;;;;;5101398;28;20444;-73
2024/01/10 09:14:44;;;;;;;8.15;5.00;;;-2.10;1.00;;;;;;5111306;28;20833;-74
2024/01/10 09:17:11;;;;;;;13.70;5.50;;;-2.00;1.00;;;;;;5110712;28;20463;-73
2024/01/10 09:19:39;;;;;;;9.35;5.10;;;-1.90;1.00;;;;;;5111483;28;20442;-74
2024/01/10 09:22:06;;;;;;;10.17;5.67;;;-1.90;1.00;;;;;;5103824;28;20436;-73
2024/01/10 09:24:34;;;;;;;12.85;5.57;;;-1.80;1.00;;;;;;5120987;27;20502;-73
2024/01/10 09:27:01;;;;;;;10.10;5.95;;;-1.80;1.00;;;;;;5113247;28;20447;-73
2024/01/10 09:29:28;;;;;;;9.90;5.88;;;-1.90;1.00;;;;;;5115138;28;20503;-73
2024/01/10 09:31:56;;;;;;;11.52;5.43;;;-1.80;1.00;;;;;;5114696;28;20428;-72
2024/01/10 09:34:23;;;;;;;10.52;5.18;;;-1.80;1.00;;;;;;5114115;28;20424;-73
2024/01/10 09:36:52;;;;;;;12.73;6.90;;;-1.80;1.00;;;;;;5114596;28;20419;-72
2024/01/10 09:39:19;;;;;;;11.43;4.47;;;-1.80;1.00;;;;;;5114238;28;20836;-73
2024/01/10 09:41:48;;;;;;;13.45;6.22;;;-1.90;1.00;;;;;;5114999;28;20832;-73
2024/01/10 09:44:17;;;;;;;9.07;5.28;;;-1.90;1.00;;;;;;5115002;28;20421;-72
2024/01/10 09:46:47;;;;;;;11.90;7.05;;;-1.90;1.00;;;;;;5114498;28;20790;-72
2024/01/10 09:49:14;;;;;;;10.82;6.10;;;-1.70;1.00;;;;;;5115075;28;20425;-72
2024/01/10 09:51:42;;;;;;;10.13;6.07;;;-1.60;1.00;;;;;;5115248;28;20424;-72
2024/01/10 09:54:11;;;;;;;12.20;6.50;;;-1.50;1.00;;;;;;5115236;28;20603;-72
2024/01/10 09:56:38;;;;;;;9.13;5.27;;;-1.30;1.00;;;;;;5115354;28;20452;-72
2024/01/10 09:59:10;;;;;;;11.60;6.72;;;-1.30;1.00;;;;;;5113788;28;20432;-72
2024/01/10 10:01:38;;;;;;;15.13;6.40;;;-1.30;1.00;;;;;;5114954;28;20496;-73
2024/01/10 10:04:07;;;;;;;13.38;6.10;;;-1.50;1.00;;;;;;5113711;28;20825;-72
2024/01/10 10:06:35;;;;;;;11.60;5.72;;;-1.40;1.00;;;;;;5113985;28;20459;-72
2024/01/10 10:09:02;;;;;;;12.43;6.53;;;-1.30;1.00;;;;;;5113562;28;20841;-72
2024/01/10 10:11:30;;;;;;;15.13;6.50;;;-1.30;1.00;;;;;;5111904;28;20474;-71
2024/01/10 10:13:57;;;;;;;13.80;6.20;;;-1.30;1.00;;;;;;5092969;28;20429;-72
2024/01/10 10:16:26;;;;;;;13.65;6.60;;;-1.00;1.00;;;;;;5091989;28;20440;-71
2024/01/10 10:18:57;;;;;;;13.65;6.82;;;-0.60;1.00;;;;;;5093700;28;20440;-72
2024/01/10 10:21:26;;;;;;;11.85;6.90;;;-0.20;1.00;;;;;;5105888;28;20697;-72
2024/01/10 10:24:04;;;;;;;18.17;7.88;;;-0.20;1.00;;;;;;5113822;28;20852;-72
2024/01/10 10:26:34;;;;;;;12.48;6.80;;;0.00;1.00;;;;;;5114619;28;20747;-72
2024/01/10 10:29:02;;;;;;;12.47;6.40;;;-0.30;1.00;;;;;;5113265;28;20495;-72
2024/01/10 10:31:31;;;;;;;16.85;7.03;;;-0.40;1.00;;;;;;5115206;28;20439;-72
2024/01/10 10:34:00;;;;;;;13.52;7.18;;;-0.60;1.00;;;;;;5115228;28;20428;-72
2024/01/10 10:36:27;;;;;;;12.00;6.70;;;-0.80;1.00;;;;;;5114377;27;20440;-73
2024/01/10 10:38:54;;;;;;;13.88;6.70;;;-0.70;1.00;;;;;;5114795;28;20436;-72
2024/01/10 10:41:22;;;;;;;16.40;6.83;;;-0.70;1.00;;;;;;5113798;28;20420;-71
2024/01/10 10:43:52;;;;;;;13.73;6.15;;;-0.70;1.00;;;;;;5114325;28;20428;-71
2024/01/10 10:46:22;;;;;;;16.63;8.55;;;-0.50;1.00;;;;;;5113477;28;20468;-70
2024/01/10 10:48:50;;;;;;;15.32;7.65;;;-0.50;1.00;;;;;;5111237;28;20432;-71
2024/01/10 10:51:22;;;;;;;15.82;8.50;;;-0.50;1.00;;;;;;5112542;27;20798;-73
2024/01/10 10:53:50;;;;;;;13.50;7.25;;;-0.40;1.00;;;;;;5095140;28;20495;-72
2024/01/10 10:56:18;;;;;;;15.70;7.72;;;-0.40;1.00;;;;;;5112480;28;20412;-71
2024/01/10 10:58:46;;;;;;;13.48;7.50;;;-0.70;1.00;;;;;;5112423;28;20740;-72
2024/01/10 11:01:16;;;;;;;12.32;7.13;;;-0.70;1.00;;;;;;5111178;28;20428;-70
2024/01/10 11:03:44;;;;;;;12.82;6.60;;;-0.50;1.00;;;;;;5109394;28;20484;-71
2024/01/10 11:06:11;;;;;;;13.48;8.00;;;-0.50;1.00;;;;;;5110324;28;20420;-71
2024/01/10 11:08:43;;;;;;;14.80;7.72;;;-0.40;1.00;;;;;;5108198;28;20432;-71
2024/01/10 11:11:23;;;;;;;16.63;9.43;;;-0.30;1.00;;;;;;5111037;28;20695;-70
2024/01/10 11:14:05;;;;;;;14.60;8.55;;;-0.40;1.00;;;;;;5109953;28;20718;-71
2024/01/10 11:16:59;;;;;;;15.05;6.60;;;-0.30;1.00;;;;;;5105528;28;20683;-70
2024/01/10 11:19:59;;;;;;;19.23;10.00;;;-0.10;1.00;;;;;;5099344;28;20424;-71
2024/01/10 11:22:44;;;;;;;16.80;8.63;;;0.10;1.00;;;;;;5093559;28;21041;-72
2024/01/10 11:25:12;;;;;;;14.23;7.28;;;0.10;1.00;;;;;;5101557;28;20432;-72
2024/01/10 11:27:39;;;;;;;13.32;8.23;;;0.00;1.00;;;;;;5105669;28;20516;-71
2024/01/10 11:30:07;;;;;;;17.02;8.98;;;0.00;1.00;;;;;;5103402;28;20430;-72
2024/01/10 11:32:38;;;;;;;15.63;8.35;;;-0.10;1.00;;;;;;5107011;28;20467;-73
2024/01/10 11:35:12;;;;;;;14.77;8.20;;;0.00;1.00;;;;;;5112793;28;20917;-72
2024/01/10 11:37:44;;;;;;;15.95;7.85;;;0.10;1.00;;;;;;5109872;28;20437;-72
2024/01/10 11:40:13;;;;;;;14.33;8.30;;;0.20;1.00;;;;;;5102517;28;20444;-72
2024/01/10 11:42:42;;;;;;;16.05;8.32;;;0.30;1.00;;;;;;5109903;28;20457;-72
2024/01/10 11:45:09;;;;;;;17.50;8.77;;;0.20;1.00;;;;;;5109366;28;20821;-73
2024/01/10 11:47:41;;;;;;;15.23;8.73;;;0.10;1.00;;;;;;5105191;28;20442;-71
2024/01/10 11:50:20;;;;;;;15.85;7.82;;;0.20;1.00;;;;;;5102960;28;20520;-71
2024/01/10 11:52:47;;;;;;;17.48;8.90;;;0.30;1.00;;;;;;5109497;28;20443;-70
2024/01/10 11:55:47;;;;;;;15.73;8.95;;;0.40;1.00;;;;;;5106096;28;20492;-72
2024/01/10 11:58:14;;;;;;;17.20;9.02;;;0.50;1.00;;;;;;5096028;28;20766;-72
2024/01/10 12:00:42;;;;;;;16.25;8.90;;;0.50;1.00;;;;;;5109112;28;20432;-73
2024/01/10 12:03:13;;;;;;;17.15;8.88;;;0.40;1.00;;;;;;5101023;28;20436;-71
2024/01/10 12:05:41;;;;;;;13.18;7.95;;;0.40;1.00;;;;;;5108973;28;20736;-72
2024/01/10 12:08:09;;;;;;;16.23;8.00;;;0.50;1.00;;;;;;5109109;28;20531;-71
2024/01/10 12:10:37;;;;;;;15.20;7.73;;;0.60;1.00;;;;;;5094120;28;20436;-72
2024/01/10 12:13:04;;;;;;;13.40;7.20;;;0.60;1.00;;;;;;5109509;28;20519;-72
2024/01/10 12:15:32;;;;;;;16.30;8.35;;;0.60;1.00;;;;;;5110367;28;20435;-72
2024/01/10 12:17:59;;;;;;;15.33;8.70;;;0.40;1.00;;;;;;5110398;28;20460;-71
2024/01/10 12:20:28;;;;;;;16.48;8.93;;;0.50;1.00;;;;;;5104403;28;20429;-72
2024/01/10 12:22:57;;;;;;;15.43;8.80;;;0.50;1.00;;;;;;5096387;28;20536;-72
2024/01/10 12:25:25;;;;;;;16.42;8.77;;;0.50;1.00;;;;;;5113600;28;20427;-72
2024/01/10 12:27:52;;;;;;;16.53;8.97;;;0.60;1.00;;;;;;5111966;28;20513;-72
2024/01/10 12:30:20;;;;;;;16.27;8.48;;;0.70;1.00;;;;;;5094405;28;20426;-72
2024/01/10 12:32:51;;;;;;;17.40;9.35;;;0.70;1.00;;;;;;5113844;28;20926;-73
2024/01/10 12:35:20;;;;;;;16.58;8.90;;;0.70;1.00;;;;;;5102941;28;20428;-73
2024/01/10 12:37:56;;;;;;;14.35;8.75;;;0.80;1.00;;;;;;5098835;28;20438;-73
2024/01/10 12:40:23;;;;;;;14.35;8.52;;;0.80;1.00;;;;;;5113588;28;20442;-72
2024/01/10 12:42:50;;;;;;;15.68;8.70;;;0.80;1.00;;;;;;5112970;28;20440;-73
2024/01/10 12:45:23;;;;;;;16.50;9.45;;;0.80;1.00;;;;;;5113918;28;20967;-73
2024/01/10 12:47:53;;;;;;;15.48;9.13;;;0.90;1.00;;;;;;5113045;27;20439;-74
2024/01/10 12:50:20;;;;;;;14.50;8.17;;;0.90;1.00;;;;;;5107500;28;20589;-73
2024/01/10 12:52:48;;;;;;;16.73;9.50;;;0.90;1.00;;;;;;5113790;28;20425;-72
2024/01/10 12:55:17;;;;;;;17.98;9.10;;;0.90;1.00;;;;;;5113311;28;20442;-73
2024/01/10 12:57:44;;;;;;;16.13;8.40;;;0.90;1.00;;;;;;5113259;28;20435;-73
2024/01/10 13:00:13;;;;;;;14.95;8.23;;;0.90;1.00;;;;;;5115033;28;20428;-72